Latest Weather Observations for Dubbo

IDN60801

Issued at 10:03 am EST Monday 29 August 2016 (issued every 30 minutes, with the page automatically refreshed every 10 minutes)

About weather observations | Map of weather stations | Latest weather observations for NSW | Other Formats
Station Details ID: 065070 Name: DUBBO AIRPORT AWS Lat: -32.22 Lon: 148.58 Height: 284.0 m
Data from the previous 72 hours. | See also: Recent months at Dubbo
Date/Time
EST
Temp
°C
App
Temp
°C
Dew
Point
°C
Rel
Hum
%
Delta-T
°C
Wind Press
QNH
hPa
Press
MSL
hPa
Rain since
9am
mm
Dir  Spd
km/h
Gust
km/h
Spd
kts
Gust
kts
29/10:00am 11.8 8.7 7.1 73 2.3 E 13 17 7 9 1026.1 1026.4 0.0
29/09:30am 10.1 7.2 6.6 79 1.7 E 11 15 6 8 1026.6 1026.9 0.0
29/09:00am 9.0 6.4 6.3 83 1.3 SE 9 13 5 7 1026.9 1027.2 0.2
29/08:30am 7.5 3.6 5.3 86 1.0 ESE 15 17 8 9 1026.5 1026.8 0.2
29/08:00am 6.5 3.0 5.3 92 0.5 ESE 13 17 7 9 1026.5 1026.8 0.2
29/07:30am 5.0 2.4 4.4 96 0.3 E 7 11 4 6 1026.2 1026.5 0.2
29/07:00am 3.0 0.3 2.4 96 0.2 SE 6 13 3 7 1025.8 1026.1 0.2
29/06:30am 2.5 -2.4 1.9 96 0.2 ESE 17 20 9 11 1025.3 1025.6 0.2
29/06:00am 2.3 -3.0 1.6 95 0.3 ESE 19 22 10 12 1024.9 1025.1 0.0
29/05:30am 3.3 -0.7 2.7 96 0.2 SE 13 17 7 9 1025.4 1025.7 0.0
29/05:00am 2.8 -1.7 2.2 96 0.2 SE 15 19 8 10 1024.7 1024.9 0.0
29/04:30am 2.4 -1.8 1.8 96 0.2 SE 13 15 7 8 1024.8 1025.0 0.0
29/04:00am 2.8 -0.9 2.4 97 0.2 SSE 11 15 6 8 1024.5 1024.7 0.0
29/03:30am 2.3 -1.1 1.7 96 0.2 ESE 9 13 5 7 1024.2 1024.4 0.0
29/03:00am 2.4 -0.1 1.8 96 0.2 SSE 4 9 2 5 1024.4 1024.6 0.0
29/02:30am 2.3 -1.5 1.7 96 0.2 ESE 11 13 6 7 1023.8 1024.0 0.0
29/02:00am 2.5 -1.3 1.9 96 0.2 ESE 11 13 6 7 1024.3 1024.5 0.0
29/01:30am 2.0 -1.0 1.1 94 0.3 SE 6 9 3 5 1024.4 1024.6 0.0
29/01:00am 3.4 0.2 3.0 97 0.2 ENE 9 11 5 6 1024.3 1024.5 0.0
29/12:54am 2.8 -0.5 2.2 96 0.2 ENE 9 11 5 6 1024.1 1024.3 0.0
29/12:30am 2.5 -0.6 1.5 93 0.4 NE 7 9 4 5 1024.2 1024.4 0.0
29/12:26am 2.7 -0.3 1.7 93 0.4 NE 7 9 4 5 1024.3 1024.5 0.0
29/12:00am 4.1 0.9 2.8 91 0.5 ESE 9 13 5 7 1024.3 1024.5 0.0
 
Date/Time
EST
Temp
°C
App
Temp
°C
Dew
Point
°C
Rel
Hum
%
Delta-T
°C
Wind Press
QNH
hPa
Press
MSL
hPa
Rain since
9am
mm
Dir  Spd
km/h
Gust
km/h
Spd
kts
Gust
kts
28/11:30pm 3.9 1.0 2.6 91 0.5 SE 7 9 4 5 1024.6 1024.8 0.0
28/11:00pm 4.1 0.9 3.1 93 0.4 ENE 9 9 5 5 1024.4 1024.6 0.0
28/10:30pm 4.7 2.1 3.2 90 0.6 ENE 6 7 3 4 1024.7 1024.9 0.0
28/10:00pm 6.4 4.1 5.0 91 0.6 E 6 7 3 4 1025.0 1025.3 0.0
28/09:30pm 5.3 2.1 3.0 85 1.0 ESE 9 11 5 6 1024.7 1024.9 0.0
28/09:00pm 5.1 3.5 2.6 84 1.0 CALM 0 0 0 0 1024.6 1024.8 0.0
28/08:30pm 8.4 5.1 4.4 76 1.8 SSW 11 11 6 6 1024.4 1024.6 0.0
28/08:00pm 9.1 6.2 4.9 75 1.9 SSW 9 11 5 6 1023.9 1024.1 0.0
28/07:30pm 9.1 6.2 4.9 75 1.9 SW 9 11 5 6 1023.8 1024.0 0.0
28/07:00pm 8.9 5.9 4.1 72 2.1 SW 9 9 5 5 1023.6 1023.8 0.0
28/06:30pm 9.6 7.9 4.2 69 2.4 W 2 6 1 3 1023.2 1023.5 0.0
28/06:00pm 11.8 9.3 5.0 63 3.2 NW 7 9 4 5 1022.9 1023.2 0.0
28/05:30pm 12.8 9.2 5.2 60 3.6 NNW 13 15 7 8 1022.8 1023.1 0.0
28/05:00pm 16.1 14.9 4.8 47 5.4 CALM 0 2 0 1 1022.6 1022.9 0.0
28/04:30pm 15.5 12.8 3.9 46 5.4 SSW 7 11 4 6 1022.6 1022.9 0.0
28/04:00pm 15.9 14.1 3.4 43 5.8 SW 2 9 1 5 1022.7 1023.0 0.0
28/03:30pm 15.6 12.6 4.0 46 5.4 W 9 17 5 9 1023.1 1023.4 0.0
28/03:00pm 15.5 12.7 5.1 50 5.0 W 9 22 5 12 1023.1 1023.4 0.0
28/02:30pm 15.1 12.3 5.0 51 4.8 NW 9 15 5 8 1023.1 1023.4 0.0
28/02:00pm 15.1 11.9 5.3 52 4.7 NNW 11 19 6 10 1023.5 1023.7 0.0
28/01:30pm 14.5 11.7 5.0 53 4.5 W 9 17 5 9 1023.8 1024.0 0.0
28/01:00pm 13.9 11.2 3.7 50 4.7 NNW 7 13 4 7 1024.1 1024.3 0.0
28/12:30pm 13.7 10.8 4.6 54 4.3 SW 9 13 5 7 1024.5 1024.7 0.0
28/12:00pm 13.3 10.8 4.5 55 4.1 WNW 7 11 4 6 1024.9 1025.1 0.0
28/11:30am 13.0 10.0 3.9 54 4.2 W 9 17 5 9 1025.1 1025.4 0.0
28/11:00am 12.3 9.9 4.3 58 3.7 N 6 9 3 5 1025.6 1025.9 0.0
28/10:30am 11.3 9.3 4.5 63 3.1 E 4 9 2 5 1025.9 1026.2 0.0
28/10:00am 9.5 8.0 5.1 74 2.0 E 2 7 1 4 1026.2 1026.5 0.0
28/09:30am 8.4 5.8 4.0 74 1.9 ENE 7 11 4 6 1026.1 1026.4 0.0
28/09:00am 6.3 3.2 3.5 82 1.2 E 9 13 5 7 1026.0 1026.3 0.0
28/08:30am 4.7 1.0 2.6 86 0.9 ESE 11 15 6 8 1026.1 1026.4 0.0
28/08:00am 3.5 -0.6 2.2 91 0.5 ESE 13 15 7 8 1026.2 1026.5 0.0
28/07:30am 2.1 -2.1 1.4 95 0.3 ESE 13 19 7 10 1025.8 1026.1 0.0
28/07:00am 0.6 -3.8 0.2 97 0.1 ESE 13 15 7 8 1025.3 1025.6 0.0
28/06:30am -0.5 -5.1 -0.9 97 0.1 SE 13 15 7 8 1024.9 1025.1 0.0
28/06:00am -1.1 -5.4 -1.7 96 0.2 ESE 11 13 6 7 1024.3 1024.5 0.0
28/05:30am -0.6 -2.8 -1.2 96 0.2 CALM 0 0 0 0 1024.4 1024.6 0.0
28/05:00am -0.6 -3.9 -1.2 96 0.2 SE 6 9 3 5 1024.2 1024.4 0.0
28/04:30am -0.5 -4.7 -1.1 96 0.2 ESE 11 13 6 7 1023.6 1023.8 0.0
28/04:00am -0.1 -4.7 -0.7 96 0.2 ESE 13 15 7 8 1023.8 1024.0 0.0
28/03:32am 0.0 -4.2 -0.6 96 0.2 ESE 11 13 6 7 1023.8 1024.0 0.0
28/03:30am -0.3 -4.5 -0.9 96 0.2 ESE 11 13 6 7 1023.8 1024.0 0.0
28/03:00am 1.1 -0.8 0.7 97 0.2 CALM 0 0 0 0 1023.9 1024.1 0.0
28/02:30am 0.3 -1.7 -0.3 96 0.2 CALM 0 0 0 0 1024.1 1024.3 0.0
28/02:14am -0.4 -2.6 -1.4 93 0.3 CALM 0 0 0 0 1024.2 1024.4 0.0
28/02:00am 0.3 -2.5 -0.3 96 0.2 ENE 4 6 2 3 1024.2 1024.4 0.0
28/01:59am 0.5 -2.3 -0.1 96 0.2 ENE 4 6 2 3 1024.2 1024.4 0.0
28/01:30am 0.6 -2.7 -0.1 95 0.3 ENE 7 9 4 5 1024.2 1024.4 0.0
28/01:20am 0.3 -3.5 -0.7 93 0.4 ENE 9 9 5 5 1024.1 1024.3 0.0
28/01:00am 1.2 -1.5 0.3 94 0.3 ENE 4 7 2 4 1024.4 1024.6 0.0
28/12:30am 1.6 -1.4 0.9 95 0.3 NE 6 7 3 4 1024.3 1024.5 0.0
28/12:00am 2.1 0.2 0.6 90 0.6 CALM 0 0 0 0 1024.6 1024.8 0.0
 
Date/Time
EST
Temp
°C
App
Temp
°C
Dew
Point
°C
Rel
Hum
%
Delta-T
°C
Wind Press
QNH
hPa
Press
MSL
hPa
Rain since
9am
mm
Dir  Spd
km/h
Gust
km/h
Spd
kts
Gust
kts
27/11:30pm 2.8 1.0 1.3 90 0.6 CALM 0 0 0 0 1024.6 1024.8 0.0
27/11:00pm 3.5 1.9 2.5 93 0.4 CALM 0 0 0 0 1024.8 1025.0 0.0
27/10:30pm 3.0 1.1 0.6 84 0.9 CALM 0 0 0 0 1024.8 1025.0 0.0
27/10:00pm 3.6 0.7 1.2 84 0.9 NNE 6 9 3 5 1024.7 1024.9 0.0
27/09:30pm 4.3 2.7 2.3 87 0.8 CALM 0 0 0 0 1024.9 1025.1 0.0
27/09:00pm 4.5 2.8 1.7 82 1.1 CALM 0 0 0 0 1024.6 1024.8 0.0
27/08:30pm 4.3 2.1 1.0 79 1.3 NNE 2 6 1 3 1024.5 1024.7 0.0
27/08:00pm 3.7 1.8 0.6 80 1.2 CALM 0 4 0 2 1024.0 1024.2 0.0
27/07:30pm 6.7 3.0 2.2 73 1.9 SW 11 13 6 7 1023.8 1024.0 0.0
27/07:00pm 5.8 1.7 2.3 78 1.4 SW 13 15 7 8 1023.6 1023.8 0.0
27/06:30pm 6.7 2.5 1.6 70 2.1 WSW 13 13 7 7 1023.4 1023.6 0.0
27/06:00pm 9.1 4.6 2.2 62 2.9 WSW 15 17 8 9 1023.0 1023.3 0.0
27/05:30pm 11.5 7.9 2.8 55 3.8 W 11 15 6 8 1022.5 1022.8 0.0
27/05:00pm 13.3 9.4 1.3 44 5.2 WSW 11 13 6 7 1022.4 1022.7 0.0
27/04:30pm 14.0 9.9 2.3 45 5.2 SW 13 20 7 11 1022.5 1022.8 0.0
27/04:00pm 14.2 9.0 2.5 45 5.2 WSW 19 24 10 13 1022.4 1022.7 0.0
27/03:30pm 14.2 9.0 2.5 45 5.3 WSW 19 26 10 14 1022.6 1022.9 0.0
27/03:00pm 14.4 9.0 2.6 45 5.3 WSW 20 30 11 16 1022.7 1023.0 0.0
27/02:30pm 14.8 11.4 4.2 49 5.0 W 11 20 6 11 1022.7 1023.0 0.0
27/02:00pm 14.8 11.5 2.7 44 5.5 SW 9 19 5 10 1022.4 1022.7 0.0
27/01:30pm 13.8 9.6 -0.6 37 6.0 WSW 11 19 6 10 1022.9 1023.2 0.0
27/01:00pm 13.9 10.1 1.9 44 5.3 SW 11 19 6 10 1023.5 1023.7 0.0
27/12:30pm 12.9 9.9 0.6 43 5.2 SSE 6 11 3 6 1023.9 1024.1 0.0
27/12:00pm 12.6 9.5 1.3 46 4.9 SW 7 11 4 6 1024.5 1024.7 0.0
27/11:30am 12.0 8.6 1.6 49 4.5 SE 9 13 5 7 1025.0 1025.3 0.0
27/11:00am 11.4 8.0 1.9 52 4.1 SSE 9 15 5 8 1025.2 1025.5 0.0
27/10:30am 10.7 6.3 2.5 57 3.6 SE 15 20 8 11 1025.2 1025.5 0.0
27/10:00am 10.3 6.1 3.8 64 2.9 ESE 15 20 8 11 1025.4 1025.7 0.0
27/09:30am 9.0 5.0 3.0 66 2.6 SE 13 17 7 9 1025.4 1025.7 0.0
27/09:00am 8.3 4.9 3.9 74 1.9 ESE 11 19 6 10 1025.1 1025.4 0.2
27/08:30am 7.0 3.8 3.3 77 1.6 ESE 9 13 5 7 1024.9 1025.1 0.2
27/08:00am 5.3 2.1 3.0 85 1.0 ESE 9 13 5 7 1024.4 1024.6 0.2
27/07:30am 2.4 0.2 1.1 91 0.5 NE 2 7 1 4 1024.3 1024.5 0.2
27/07:00am 2.0 -1.9 1.0 93 0.4 SSE 11 13 6 7 1024.1 1024.3 0.2
27/06:30am 1.4 -2.9 0.7 95 0.3 SSE 13 15 7 8 1023.9 1024.1 0.0
27/06:00am 0.5 -4.0 -0.5 93 0.4 ESE 13 15 7 8 1023.6 1023.8 0.0
27/05:30am 0.8 -3.7 -0.2 93 0.4 ESE 13 15 7 8 1023.1 1023.4 0.0
27/05:00am 2.5 -2.2 1.0 90 0.6 SE 15 17 8 9 1022.9 1023.2 0.0
27/04:30am 2.8 -2.2 1.5 91 0.5 SE 17 19 9 10 1022.8 1023.1 0.0
27/04:00am 1.0 -3.4 0.3 95 0.3 SE 13 15 7 8 1022.4 1022.7 0.0
27/03:30am 1.4 -2.6 0.5 94 0.3 SE 11 15 6 8 1022.2 1022.5 0.0
27/03:00am 0.1 -4.1 -1.0 92 0.4 SE 11 13 6 7 1022.4 1022.7 0.0
27/02:30am 1.5 -0.7 0.8 95 0.3 ENE 2 6 1 3 1022.7 1023.0 0.0
27/02:00am 1.7 -1.6 0.2 90 0.6 SE 7 7 4 4 1023.1 1023.4 0.0
27/01:30am 0.2 -2.4 -1.4 89 0.6 ENE 2 6 1 3 1023.2 1023.5 0.0
27/01:00am 2.2 0.3 0.6 89 0.6 CALM 0 0 0 0 1023.2 1023.5 0.0
27/12:30am 2.6 0.7 0.3 85 0.9 CALM 0 0 0 0 1023.1 1023.4 0.0
27/12:00am 3.0 -0.7 0.2 82 1.1 SE 9 11 5 6 1022.9 1023.2 0.0
 
Date/Time
EST
Temp
°C
App
Temp
°C
Dew
Point
°C
Rel
Hum
%
Delta-T
°C
Wind Press
QNH
hPa
Press
MSL
hPa
Rain since
9am
mm
Dir  Spd
km/h
Gust
km/h
Spd
kts
Gust
kts
26/11:30pm 4.6 2.1 1.5 80 1.2 WSW 4 7 2 4 1023.1 1023.4 0.0
26/11:00pm 5.1 1.7 1.9 80 1.3 S 9 11 5 6 1022.9 1023.2 0.0
26/10:30pm 4.1 0.9 0.6 78 1.4 SSW 7 9 4 5 1022.8 1023.1 0.0
26/10:00pm 5.6 2.8 2.1 78 1.4 S 6 7 3 4 1022.8 1023.1 0.0
26/09:30pm 6.3 2.6 2.2 75 1.7 S 11 13 6 7 1022.4 1022.7 0.0
26/09:00pm 6.7 2.2 2.2 73 1.9 S 15 19 8 10 1022.1 1022.4 0.0
26/08:30pm 7.7 2.9 2.4 69 2.2 S 17 22 9 12 1021.9 1022.1 0.0
26/08:00pm 7.8 2.9 2.3 68 2.3 S 17 20 9 11 1021.8 1022.0 0.0
26/07:30pm 8.2 3.3 2.2 66 2.5 SSW 17 20 9 11 1021.7 1021.9 0.0
26/07:00pm 8.0 3.2 2.5 68 2.3 SSW 17 20 9 11 1021.5 1021.7 0.0
26/06:30pm 8.3 3.9 2.5 67 2.5 SSW 15 19 8 10 1021.0 1021.2 0.0
26/06:00pm 9.2 4.4 2.8 64 2.8 SSW 17 20 9 11 1020.5 1020.7 0.0
26/05:30pm 11.0 5.7 2.8 57 3.6 SSW 20 30 11 16 1020.1 1020.3 0.0
26/05:00pm 12.5 7.6 2.1 49 4.6 S 17 20 9 11 1019.8 1020.0 0.0
26/04:30pm 13.5 8.5 1.2 43 5.3 S 17 24 9 13 1019.4 1019.7 0.0
26/04:00pm 13.6 9.4 1.9 45 5.2 S 13 20 7 11 1019.2 1019.5 0.0
26/03:30pm 14.0 9.0 1.6 43 5.5 SSW 17 24 9 13 1019.1 1019.4 0.0
26/03:00pm 13.8 9.0 0.5 40 5.7 S 15 24 8 13 1018.9 1019.1 0.0
26/02:30pm 13.7 8.6 0.7 41 5.6 SSE 17 26 9 14 1018.9 1019.1 0.0
26/02:00pm 13.5 9.4 2.1 46 5.0 S 13 19 7 10 1019.1 1019.4 0.0
26/01:30pm 13.6 8.9 3.1 49 4.8 S 17 26 9 14 1019.1 1019.4 0.0
26/01:00pm 13.6 9.0 3.7 51 4.5 S 17 22 9 12 1019.3 1019.6 0.0
26/12:30pm 12.8 7.8 1.5 46 4.9 S 17 28 9 15 1019.7 1019.9 0.0
26/12:00pm 12.2 7.4 2.4 51 4.3 SSW 17 28 9 15 1020.1 1020.3 0.0
26/11:30am 11.7 7.7 2.7 54 4.0 S 13 22 7 12 1020.7 1020.9 0.0
26/11:00am 10.9 6.8 2.2 55 3.8 SE 13 22 7 12 1021.0 1021.2 0.0
26/10:30am 10.6 6.9 2.4 57 3.6 S 11 20 6 11 1021.0 1021.2 0.0

Other Formats:

Comma delimited format used in spreadsheet applications
http://www.bom.gov.au/fwo/IDN60801/IDN60801.95719.axf

JavaScript Object Notation format (JSON) in row-major order
http://www.bom.gov.au/fwo/IDN60801/IDN60801.95719.json